sensor_id;sensor_type;location;lat;lon;timestamp;pressure;altitude;pressure_sealevel;temperature;humidity
13486;BME280;6815;59.336;17.998;2023-04-21T00:02:15;52021.28;;;-145.37;50.70
13486;BME280;6815;59.336;17.998;2023-04-21T00:04:41;52013.31;;;-145.37;49.64
13486;BME280;6815;59.336;17.998;2023-04-21T00:07:10;52047.25;;;-145.37;49.19
13486;BME280;6815;59.336;17.998;2023-04-21T00:09:35;52023.28;;;-145.37;49.29
13486;BME280;6815;59.336;17.998;2023-04-21T00:12:01;52015.28;;;-145.37;49.26
13486;BME280;6815;59.336;17.998;2023-04-21T00:14:27;52011.31;;;-145.37;49.12
13486;BME280;6815;59.336;17.998;2023-04-21T00:16:52;52035.25;;;-145.37;47.54
13486;BME280;6815;59.336;17.998;2023-04-21T00:19:18;52029.28;;;-145.37;48.83
13486;BME280;6815;59.336;17.998;2023-04-21T00:21:44;52043.25;;;-145.37;49.75
13486;BME280;6815;59.336;17.998;2023-04-21T00:24:10;52025.28;;;-145.37;50.30
13486;BME280;6815;59.336;17.998;2023-04-21T00:26:35;52051.22;;;-145.37;51.43
13486;BME280;6815;59.336;17.998;2023-04-21T00:29:01;52045.25;;;-145.37;51.55
13486;BME280;6815;59.336;17.998;2023-04-21T00:31:26;51999.34;;;-145.37;52.24
13486;BME280;6815;59.336;17.998;2023-04-21T00:33:52;51995.34;;;-145.37;51.90
13486;BME280;6815;59.336;17.998;2023-04-21T00:36:18;52001.31;;;-145.37;51.41
13486;BME280;6815;59.336;17.998;2023-04-21T00:38:43;52021.28;;;-145.37;51.72
13486;BME280;6815;59.336;17.998;2023-04-21T00:41:09;52039.25;;;-145.37;50.60
13486;BME280;6815;59.336;17.998;2023-04-21T00:43:34;52029.28;;;-145.37;50.91
13486;BME280;6815;59.336;17.998;2023-04-21T00:46:00;51989.34;;;-145.37;50.74
13486;BME280;6815;59.336;17.998;2023-04-21T00:48:25;52023.28;;;-145.37;51.03
13486;BME280;6815;59.336;17.998;2023-04-21T00:50:51;51961.41;;;-145.37;51.04
13486;BME280;6815;59.336;17.998;2023-04-21T00:53:17;52013.31;;;-145.37;50.83
13486;BME280;6815;59.336;17.998;2023-04-21T00:55:43;51999.34;;;-145.37;50.32
13486;BME280;6815;59.336;17.998;2023-04-21T00:58:11;52021.28;;;-145.37;50.07
13486;BME280;6815;59.336;17.998;2023-04-21T01:00:37;52041.25;;;-145.37;50.20
13486;BME280;6815;59.336;17.998;2023-04-21T01:03:03;51991.34;;;-145.37;50.38
13486;BME280;6815;59.336;17.998;2023-04-21T01:05:30;52003.31;;;-145.37;50.63
13486;BME280;6815;59.336;17.998;2023-04-21T01:07:56;52033.25;;;-145.37;50.30
13486;BME280;6815;59.336;17.998;2023-04-21T01:10:21;52025.28;;;-145.37;49.27
13486;BME280;6815;59.336;17.998;2023-04-21T01:12:47;52033.25;;;-145.37;48.95
13486;BME280;6815;59.336;17.998;2023-04-21T01:15:13;52023.28;;;-145.37;49.14
13486;BME280;6815;59.336;17.998;2023-04-21T01:17:40;52007.31;;;-145.37;49.58
13486;BME280;6815;59.336;17.998;2023-04-21T01:20:11;52001.31;;;-145.37;49.30
13486;BME280;6815;59.336;17.998;2023-04-21T01:22:38;52061.22;;;-145.37;49.68
13486;BME280;6815;59.336;17.998;2023-04-21T01:25:04;52017.28;;;-145.37;49.60
13486;BME280;6815;59.336;17.998;2023-04-21T01:27:30;52021.28;;;-145.37;48.74
13486;BME280;6815;59.336;17.998;2023-04-21T01:29:56;52041.25;;;-145.37;48.79
13486;BME280;6815;59.336;17.998;2023-04-21T01:32:25;52025.28;;;-145.37;49.35
13486;BME280;6815;59.336;17.998;2023-04-21T01:34:52;52061.22;;;-145.37;49.52
13486;BME280;6815;59.336;17.998;2023-04-21T01:37:26;52015.28;;;-145.37;48.96
13486;BME280;6815;59.336;17.998;2023-04-21T01:39:55;52045.25;;;-145.37;48.88
13486;BME280;6815;59.336;17.998;2023-04-21T01:42:22;52017.28;;;-145.37;48.29
13486;BME280;6815;59.336;17.998;2023-04-21T01:44:48;52035.25;;;-145.37;48.67
13486;BME280;6815;59.336;17.998;2023-04-21T01:47:15;52027.28;;;-145.37;48.40
13486;BME280;6815;59.336;17.998;2023-04-21T01:49:40;52037.25;;;-145.37;48.35
13486;BME280;6815;59.336;17.998;2023-04-21T01:52:06;52023.28;;;-145.37;48.88
13486;BME280;6815;59.336;17.998;2023-04-21T01:54:31;51999.34;;;-145.37;48.43
13486;BME280;6815;59.336;17.998;2023-04-21T01:56:57;52021.28;;;-145.37;48.06
13486;BME280;6815;59.336;17.998;2023-04-21T01:59:22;52017.28;;;-145.37;47.61
13486;BME280;6815;59.336;17.998;2023-04-21T02:01:48;52011.31;;;-145.37;47.72
13486;BME280;6815;59.336;17.998;2023-04-21T02:04:14;52035.25;;;-145.37;48.40
13486;BME280;6815;59.336;17.998;2023-04-21T02:06:39;52047.25;;;-145.37;48.00
13486;BME280;6815;59.336;17.998;2023-04-21T02:09:05;52023.28;;;-145.37;47.98
13486;BME280;6815;59.336;17.998;2023-04-21T02:11:31;52001.31;;;-145.37;48.31
13486;BME280;6815;59.336;17.998;2023-04-21T02:13:56;52029.28;;;-145.37;49.01
13486;BME280;6815;59.336;17.998;2023-04-21T02:16:22;52047.25;;;-145.37;49.25
13486;BME280;6815;59.336;17.998;2023-04-21T02:18:51;52031.25;;;-145.37;49.41
13486;BME280;6815;59.336;17.998;2023-04-21T02:21:19;51991.34;;;-145.37;51.56
13486;BME280;6815;59.336;17.998;2023-04-21T02:23:48;51971.38;;;-145.37;50.99
13486;BME280;6815;59.336;17.998;2023-04-21T02:26:14;51989.34;;;-145.37;51.04
13486;BME280;6815;59.336;17.998;2023-04-21T02:28:39;52003.31;;;-145.37;51.95
13486;BME280;6815;59.336;17.998;2023-04-21T02:31:06;52021.28;;;-145.37;52.46
13486;BME280;6815;59.336;17.998;2023-04-21T02:33:32;52015.28;;;-145.37;53.55
13486;BME280;6815;59.336;17.998;2023-04-21T02:35:57;51995.34;;;-145.37;54.39
13486;BME280;6815;59.336;17.998;2023-04-21T02:38:22;52019.28;;;-145.37;54.06
13486;BME280;6815;59.336;17.998;2023-04-21T02:40:48;52011.31;;;-145.37;54.62
13486;BME280;6815;59.336;17.998;2023-04-21T02:43:15;52003.31;;;-145.37;55.98
13486;BME280;6815;59.336;17.998;2023-04-21T02:45:40;52017.28;;;-145.37;55.35
13486;BME280;6815;59.336;17.998;2023-04-21T02:48:06;52015.28;;;-145.37;53.19
13486;BME280;6815;59.336;17.998;2023-04-21T02:50:31;52003.31;;;-145.37;52.68
13486;BME280;6815;59.336;17.998;2023-04-21T02:52:57;52053.22;;;-145.37;53.09
13486;BME280;6815;59.336;17.998;2023-04-21T02:55:22;52021.28;;;-145.37;53.81
13486;BME280;6815;59.336;17.998;2023-04-21T02:57:49;52009.31;;;-145.37;55.48
13486;BME280;6815;59.336;17.998;2023-04-21T03:00:15;51969.38;;;-145.37;55.07
13486;BME280;6815;59.336;17.998;2023-04-21T03:02:40;52019.28;;;-145.37;53.51
13486;BME280;6815;59.336;17.998;2023-04-21T03:05:06;51991.34;;;-145.37;52.64
13486;BME280;6815;59.336;17.998;2023-04-21T03:07:32;52027.28;;;-145.37;52.31
13486;BME280;6815;59.336;17.998;2023-04-21T03:09:57;52053.22;;;-145.37;53.14
13486;BME280;6815;59.336;17.998;2023-04-21T03:12:23;51999.34;;;-145.37;52.38
13486;BME280;6815;59.336;17.998;2023-04-21T03:14:48;52033.25;;;-145.37;51.59
13486;BME280;6815;59.336;17.998;2023-04-21T03:17:14;52031.25;;;-145.37;52.01
13486;BME280;6815;59.336;17.998;2023-04-21T03:19:39;52037.25;;;-145.37;51.48
13486;BME280;6815;59.336;17.998;2023-04-21T03:22:05;52025.28;;;-145.37;51.76
13486;BME280;6815;59.336;17.998;2023-04-21T03:24:31;52019.28;;;-145.37;52.54
13486;BME280;6815;59.336;17.998;2023-04-21T03:26:56;52027.28;;;-145.37;51.75
13486;BME280;6815;59.336;17.998;2023-04-21T03:29:22;52011.31;;;-145.37;52.78
13486;BME280;6815;59.336;17.998;2023-04-21T03:31:47;51977.38;;;-145.37;55.13
13486;BME280;6815;59.336;17.998;2023-04-21T03:34:13;52033.25;;;-145.37;57.49
13486;BME280;6815;59.336;17.998;2023-04-21T03:36:38;52023.28;;;-145.37;59.35
13486;BME280;6815;59.336;17.998;2023-04-21T03:39:04;52039.25;;;-145.37;60.10
13486;BME280;6815;59.336;17.998;2023-04-21T03:41:29;52007.31;;;-145.37;59.27
13486;BME280;6815;59.336;17.998;2023-04-21T03:43:55;52017.28;;;-145.37;59.64
13486;BME280;6815;59.336;17.998;2023-04-21T03:46:20;52009.31;;;-145.37;59.82
13486;BME280;6815;59.336;17.998;2023-04-21T03:48:47;52041.25;;;-145.37;60.25
13486;BME280;6815;59.336;17.998;2023-04-21T03:51:13;52001.31;;;-145.37;60.29
13486;BME280;6815;59.336;17.998;2023-04-21T03:53:39;52035.25;;;-145.37;60.02
13486;BME280;6815;59.336;17.998;2023-04-21T03:56:06;52003.31;;;-145.37;60.59
13486;BME280;6815;59.336;17.998;2023-04-21T03:58:33;51997.34;;;-145.37;61.54
13486;BME280;6815;59.336;17.998;2023-04-21T04:00:58;52033.25;;;-145.37;60.99
13486;BME280;6815;59.336;17.998;2023-04-21T04:03:24;52043.25;;;-145.37;62.39
13486;BME280;6815;59.336;17.998;2023-04-21T04:05:49;52001.31;;;-145.37;65.46
13486;BME280;6815;59.336;17.998;2023-04-21T04:08:15;51975.38;;;-145.37;66.03
13486;BME280;6815;59.336;17.998;2023-04-21T04:10:40;52013.31;;;-145.37;65.98
13486;BME280;6815;59.336;17.998;2023-04-21T04:13:06;52017.28;;;-145.37;64.66
13486;BME280;6815;59.336;17.998;2023-04-21T04:15:31;51969.38;;;-145.37;62.89
13486;BME280;6815;59.336;17.998;2023-04-21T04:17:57;52009.31;;;-145.37;61.89
13486;BME280;6815;59.336;17.998;2023-04-21T04:20:23;52029.28;;;-145.37;60.83
13486;BME280;6815;59.336;17.998;2023-04-21T04:22:48;52007.31;;;-145.37;60.47
13486;BME280;6815;59.336;17.998;2023-04-21T04:25:14;52041.25;;;-145.37;60.16
13486;BME280;6815;59.336;17.998;2023-04-21T04:27:42;52051.22;;;-145.37;58.31
13486;BME280;6815;59.336;17.998;2023-04-21T04:30:08;52009.31;;;-145.37;58.53
13486;BME280;6815;59.336;17.998;2023-04-21T04:32:34;52045.25;;;-145.37;57.90
13486;BME280;6815;59.336;17.998;2023-04-21T04:35:02;51999.34;;;-145.37;58.17
13486;BME280;6815;59.336;17.998;2023-04-21T04:37:28;52049.22;;;-145.37;58.85
13486;BME280;6815;59.336;17.998;2023-04-21T04:39:53;52021.28;;;-145.37;57.49
13486;BME280;6815;59.336;17.998;2023-04-21T04:42:19;51987.34;;;-145.37;56.87
13486;BME280;6815;59.336;17.998;2023-04-21T04:44:45;52017.28;;;-145.37;56.50
13486;BME280;6815;59.336;17.998;2023-04-21T04:47:11;51999.34;;;-145.37;56.26
13486;BME280;6815;59.336;17.998;2023-04-21T04:49:37;52009.31;;;-145.37;56.34
13486;BME280;6815;59.336;17.998;2023-04-21T04:52:03;51995.34;;;-145.37;58.67
13486;BME280;6815;59.336;17.998;2023-04-21T04:54:28;52045.25;;;-145.37;60.17
13486;BME280;6815;59.336;17.998;2023-04-21T04:56:54;52019.28;;;-145.37;61.24
13486;BME280;6815;59.336;17.998;2023-04-21T04:59:21;51991.34;;;-145.37;60.92
13486;BME280;6815;59.336;17.998;2023-04-21T05:01:46;51977.38;;;-145.37;61.45
13486;BME280;6815;59.336;17.998;2023-04-21T05:04:11;51989.34;;;-145.37;60.58
13486;BME280;6815;59.336;17.998;2023-04-21T05:06:40;52017.28;;;-145.37;60.73
13486;BME280;6815;59.336;17.998;2023-04-21T05:09:06;52029.28;;;-145.37;60.00
13486;BME280;6815;59.336;17.998;2023-04-21T05:11:31;51979.38;;;-145.37;60.69
13486;BME280;6815;59.336;17.998;2023-04-21T05:13:57;52015.28;;;-145.37;60.05
13486;BME280;6815;59.336;17.998;2023-04-21T05:16:23;52015.28;;;-145.37;58.94
13486;BME280;6815;59.336;17.998;2023-04-21T05:18:48;52029.28;;;-145.37;55.26
13486;BME280;6815;59.336;17.998;2023-04-21T05:21:24;52047.25;;;-145.37;54.54
13486;BME280;6815;59.336;17.998;2023-04-21T05:23:55;52033.25;;;-145.37;52.94
13486;BME280;6815;59.336;17.998;2023-04-21T05:26:22;52007.31;;;-145.37;52.07
13486;BME280;6815;59.336;17.998;2023-04-21T05:28:47;51989.34;;;-145.37;51.25
13486;BME280;6815;59.336;17.998;2023-04-21T05:31:13;52047.25;;;-145.37;49.11
13486;BME280;6815;59.336;17.998;2023-04-21T05:33:38;52041.25;;;-145.37;48.86
13486;BME280;6815;59.336;17.998;2023-04-21T05:36:10;52021.28;;;-145.37;47.30
13486;BME280;6815;59.336;17.998;2023-04-21T05:38:36;52059.22;;;-145.37;46.29
13486;BME280;6815;59.336;17.998;2023-04-21T05:41:03;52021.28;;;-145.37;45.12
13486;BME280;6815;59.336;17.998;2023-04-21T05:43:28;52069.19;;;-145.37;44.50
13486;BME280;6815;59.336;17.998;2023-04-21T05:45:54;52069.19;;;-145.37;43.22
13486;BME280;6815;59.336;17.998;2023-04-21T05:48:19;52071.19;;;-145.37;42.51
13486;BME280;6815;59.336;17.998;2023-04-21T05:50:45;52043.25;;;-145.37;42.96
13486;BME280;6815;59.336;17.998;2023-04-21T05:53:10;52057.22;;;-145.37;41.66
13486;BME280;6815;59.336;17.998;2023-04-21T05:55:36;52021.28;;;-145.37;41.43
13486;BME280;6815;59.336;17.998;2023-04-21T05:58:02;52015.28;;;-145.37;40.85
13486;BME280;6815;59.336;17.998;2023-04-21T06:00:28;52047.25;;;-145.37;40.75
13486;BME280;6815;59.336;17.998;2023-04-21T06:02:54;52017.28;;;-145.37;40.21
13486;BME280;6815;59.336;17.998;2023-04-21T06:05:19;52073.19;;;-145.37;40.45
13486;BME280;6815;59.336;17.998;2023-04-21T06:07:45;52021.28;;;-145.37;39.78
13486;BME280;6815;59.336;17.998;2023-04-21T06:10:12;52017.28;;;-145.37;40.18
13486;BME280;6815;59.336;17.998;2023-04-21T06:12:38;52021.28;;;-145.37;39.42
13486;BME280;6815;59.336;17.998;2023-04-21T06:15:03;52015.28;;;-145.37;39.58
13486;BME280;6815;59.336;17.998;2023-04-21T06:17:29;52007.31;;;-145.37;39.61
13486;BME280;6815;59.336;17.998;2023-04-21T06:19:55;52037.25;;;-145.37;39.44
13486;BME280;6815;59.336;17.998;2023-04-21T06:22:24;52011.31;;;-145.37;38.84
13486;BME280;6815;59.336;17.998;2023-04-21T06:24:50;52009.31;;;-145.37;38.97
13486;BME280;6815;59.336;17.998;2023-04-21T06:27:16;52015.28;;;-145.37;39.54
13486;BME280;6815;59.336;17.998;2023-04-21T06:29:41;52023.28;;;-145.37;39.37
13486;BME280;6815;59.336;17.998;2023-04-21T06:32:10;52003.31;;;-145.37;39.26
13486;BME280;6815;59.336;17.998;2023-04-21T06:34:36;52073.19;;;-145.37;39.37
13486;BME280;6815;59.336;17.998;2023-04-21T06:37:02;52029.28;;;-145.37;39.55
13486;BME280;6815;59.336;17.998;2023-04-21T06:39:28;52007.31;;;-145.37;39.31
13486;BME280;6815;59.336;17.998;2023-04-21T06:41:54;52041.25;;;-145.37;39.24
13486;BME280;6815;59.336;17.998;2023-04-21T06:44:21;51977.38;;;-145.37;39.09
13486;BME280;6815;59.336;17.998;2023-04-21T06:46:46;52017.28;;;-145.37;39.65
13486;BME280;6815;59.336;17.998;2023-04-21T06:49:11;52021.28;;;-145.37;39.68
13486;BME280;6815;59.336;17.998;2023-04-21T06:51:37;51999.34;;;-145.37;39.87
13486;BME280;6815;59.336;17.998;2023-04-21T06:54:03;52021.28;;;-145.37;39.89
13486;BME280;6815;59.336;17.998;2023-04-21T06:56:30;52029.28;;;-145.37;40.19
13486;BME280;6815;59.336;17.998;2023-04-21T06:58:56;52023.28;;;-145.37;40.30
13486;BME280;6815;59.336;17.998;2023-04-21T07:01:22;52033.25;;;-145.37;40.00
13486;BME280;6815;59.336;17.998;2023-04-21T07:03:50;52009.31;;;-145.37;39.54
13486;BME280;6815;59.336;17.998;2023-04-21T07:06:16;52011.31;;;-145.37;40.03
13486;BME280;6815;59.336;17.998;2023-04-21T07:08:41;52055.22;;;-145.37;39.90
13486;BME280;6815;59.336;17.998;2023-04-21T07:11:07;52001.31;;;-145.37;39.84
13486;BME280;6815;59.336;17.998;2023-04-21T07:13:32;51991.34;;;-145.37;39.93
13486;BME280;6815;59.336;17.998;2023-04-21T07:15:58;52021.28;;;-145.37;39.77
13486;BME280;6815;59.336;17.998;2023-04-21T07:18:24;52043.25;;;-145.37;39.32
13486;BME280;6815;59.336;17.998;2023-04-21T07:20:50;52023.28;;;-145.37;39.29
13486;BME280;6815;59.336;17.998;2023-04-21T07:23:15;52023.28;;;-145.37;39.96
13486;BME280;6815;59.336;17.998;2023-04-21T07:25:41;52049.22;;;-145.37;39.77
13486;BME280;6815;59.336;17.998;2023-04-21T07:28:06;52061.22;;;-145.37;39.37
13486;BME280;6815;59.336;17.998;2023-04-21T07:30:32;52003.31;;;-145.37;39.15
13486;BME280;6815;59.336;17.998;2023-04-21T07:32:57;51989.34;;;-145.37;39.33
13486;BME280;6815;59.336;17.998;2023-04-21T07:35:23;52005.31;;;-145.37;39.28
13486;BME280;6815;59.336;17.998;2023-04-21T07:37:49;52029.28;;;-145.37;39.90
13486;BME280;6815;59.336;17.998;2023-04-21T07:40:14;51993.34;;;-145.37;39.32
13486;BME280;6815;59.336;17.998;2023-04-21T07:42:41;52021.28;;;-145.37;39.35
13486;BME280;6815;59.336;17.998;2023-04-21T07:45:06;52067.19;;;-145.37;39.37
13486;BME280;6815;59.336;17.998;2023-04-21T07:47:32;52009.31;;;-145.37;39.10
13486;BME280;6815;59.336;17.998;2023-04-21T07:49:58;52041.25;;;-145.37;38.99
13486;BME280;6815;59.336;17.998;2023-04-21T07:52:23;52025.28;;;-145.37;38.86
13486;BME280;6815;59.336;17.998;2023-04-21T07:54:49;52005.31;;;-145.37;39.01
13486;BME280;6815;59.336;17.998;2023-04-21T07:57:15;52017.28;;;-145.37;39.57
13486;BME280;6815;59.336;17.998;2023-04-21T07:59:40;52005.31;;;-145.37;39.83
13486;BME280;6815;59.336;17.998;2023-04-21T08:02:06;52031.25;;;-145.37;39.81
13486;BME280;6815;59.336;17.998;2023-04-21T08:04:32;52015.28;;;-145.37;39.89
13486;BME280;6815;59.336;17.998;2023-04-21T08:06:57;52077.19;;;-145.37;39.45
13486;BME280;6815;59.336;17.998;2023-04-21T08:09:23;52055.22;;;-145.37;39.60
13486;BME280;6815;59.336;17.998;2023-04-21T08:11:48;52021.28;;;-145.37;39.42
13486;BME280;6815;59.336;17.998;2023-04-21T08:14:14;52001.31;;;-145.37;39.31
13486;BME280;6815;59.336;17.998;2023-04-21T08:16:39;52033.25;;;-145.37;39.06
13486;BME280;6815;59.336;17.998;2023-04-21T08:19:07;52005.31;;;-145.37;39.65
13486;BME280;6815;59.336;17.998;2023-04-21T08:21:33;52063.22;;;-145.37;39.79
13486;BME280;6815;59.336;17.998;2023-04-21T08:23:59;52043.25;;;-145.37;39.76
13486;BME280;6815;59.336;17.998;2023-04-21T08:26:25;51985.34;;;-145.37;39.66
13486;BME280;6815;59.336;17.998;2023-04-21T08:28:50;51989.34;;;-145.37;39.53
13486;BME280;6815;59.336;17.998;2023-04-21T08:31:18;52059.22;;;-145.37;39.71
13486;BME280;6815;59.336;17.998;2023-04-21T08:33:44;52051.22;;;-145.37;39.57
13486;BME280;6815;59.336;17.998;2023-04-21T08:36:09;52025.28;;;-145.37;39.61
13486;BME280;6815;59.336;17.998;2023-04-21T08:38:36;52015.28;;;-145.37;39.25
13486;BME280;6815;59.336;17.998;2023-04-21T08:41:03;52033.25;;;-145.37;39.62
13486;BME280;6815;59.336;17.998;2023-04-21T08:43:29;52031.25;;;-145.37;39.18
13486;BME280;6815;59.336;17.998;2023-04-21T08:45:55;52029.28;;;-145.37;39.59
13486;BME280;6815;59.336;17.998;2023-04-21T08:48:21;52003.31;;;-145.37;39.45
13486;BME280;6815;59.336;17.998;2023-04-21T08:50:52;52017.28;;;-145.37;39.41
13486;BME280;6815;59.336;17.998;2023-04-21T08:53:18;52001.31;;;-145.37;39.45
13486;BME280;6815;59.336;17.998;2023-04-21T08:55:44;52015.28;;;-145.37;39.66
13486;BME280;6815;59.336;17.998;2023-04-21T08:58:10;52031.25;;;-145.37;39.57
13486;BME280;6815;59.336;17.998;2023-04-21T09:00:37;52023.28;;;-145.37;39.51
13486;BME280;6815;59.336;17.998;2023-04-21T09:03:06;52021.28;;;-145.37;39.66
13486;BME280;6815;59.336;17.998;2023-04-21T09:05:33;52033.25;;;-145.37;39.65
13486;BME280;6815;59.336;17.998;2023-04-21T09:08:14;51987.34;;;-145.37;39.33
13486;BME280;6815;59.336;17.998;2023-04-21T09:10:51;52007.31;;;-145.37;39.31
13486;BME280;6815;59.336;17.998;2023-04-21T09:13:18;52027.28;;;-145.37;39.39
13486;BME280;6815;59.336;17.998;2023-04-21T09:15:49;52023.28;;;-145.37;39.66
13486;BME280;6815;59.336;17.998;2023-04-21T09:18:22;52007.31;;;-145.37;39.66
13486;BME280;6815;59.336;17.998;2023-04-21T09:21:05;51989.34;;;-145.37;39.64
13486;BME280;6815;59.336;17.998;2023-04-21T09:23:31;52043.25;;;-145.37;39.27
13486;BME280;6815;59.336;17.998;2023-04-21T09:26:03;52017.28;;;-145.37;39.49
13486;BME280;6815;59.336;17.998;2023-04-21T09:28:30;52031.25;;;-145.37;39.21
13486;BME280;6815;59.336;17.998;2023-04-21T09:30:56;52027.28;;;-145.37;39.42
13486;BME280;6815;59.336;17.998;2023-04-21T09:33:22;52053.22;;;-145.37;39.59
13486;BME280;6815;59.336;17.998;2023-04-21T09:35:47;51985.34;;;-145.37;39.18
13486;BME280;6815;59.336;17.998;2023-04-21T09:38:13;52041.25;;;-145.37;38.87
13486;BME280;6815;59.336;17.998;2023-04-21T09:40:39;52009.31;;;-145.37;38.94
13486;BME280;6815;59.336;17.998;2023-04-21T09:43:05;52013.31;;;-145.37;38.65
13486;BME280;6815;59.336;17.998;2023-04-21T09:45:31;52027.28;;;-145.37;38.62
13486;BME280;6815;59.336;17.998;2023-04-21T09:47:59;52021.28;;;-145.37;38.22
13486;BME280;6815;59.336;17.998;2023-04-21T09:50:26;52025.28;;;-145.37;38.52
13486;BME280;6815;59.336;17.998;2023-04-21T09:52:54;52027.28;;;-145.37;38.10
13486;BME280;6815;59.336;17.998;2023-04-21T09:55:28;52039.25;;;-145.37;37.54
13486;BME280;6815;59.336;17.998;2023-04-21T09:57:58;51993.34;;;-145.37;37.21
13486;BME280;6815;59.336;17.998;2023-04-21T10:00:27;52027.28;;;-145.37;37.18
13486;BME280;6815;59.336;17.998;2023-04-21T10:02:54;52011.31;;;-145.37;37.73
13486;BME280;6815;59.336;17.998;2023-04-21T10:05:21;52011.31;;;-145.37;37.65
13486;BME280;6815;59.336;17.998;2023-04-21T10:07:47;51985.34;;;-145.37;37.91
13486;BME280;6815;59.336;17.998;2023-04-21T10:10:27;52013.31;;;-145.37;38.44
13486;BME280;6815;59.336;17.998;2023-04-21T10:12:56;52005.31;;;-145.37;38.28
13486;BME280;6815;59.336;17.998;2023-04-21T10:20:54;51999.34;;;-145.37;38.58
13486;BME280;6815;59.336;17.998;2023-04-21T10:23:26;52019.28;;;-145.37;37.99
13486;BME280;6815;59.336;17.998;2023-04-21T10:25:55;52003.31;;;-145.37;38.21
13486;BME280;6815;59.336;17.998;2023-04-21T10:28:59;52009.31;;;-145.37;38.12
13486;BME280;6815;59.336;17.998;2023-04-21T10:31:34;51975.38;;;-145.37;37.81
13486;BME280;6815;59.336;17.998;2023-04-21T10:39:06;52027.28;;;-145.37;37.70
13486;BME280;6815;59.336;17.998;2023-04-21T10:41:33;52025.28;;;-145.37;37.84
13486;BME280;6815;59.336;17.998;2023-04-21T10:44:00;52047.25;;;-145.37;37.46
13486;BME280;6815;59.336;17.998;2023-04-21T10:46:39;52023.28;;;-145.37;37.78
13486;BME280;6815;59.336;17.998;2023-04-21T10:49:13;51995.34;;;-145.37;37.52
13486;BME280;6815;59.336;17.998;2023-04-21T10:57:12;52053.22;;;-145.37;36.83
13486;BME280;6815;59.336;17.998;2023-04-21T10:59:38;52061.22;;;-145.37;36.65
13486;BME280;6815;59.336;17.998;2023-04-21T11:02:05;52043.25;;;-145.37;36.69
13486;BME280;6815;59.336;17.998;2023-04-21T11:04:32;52037.25;;;-145.37;36.31
13486;BME280;6815;59.336;17.998;2023-04-21T11:07:14;51975.38;;;-145.37;36.34
13486;BME280;6815;59.336;17.998;2023-04-21T11:09:42;52047.25;;;-145.37;36.10
13486;BME280;6815;59.336;17.998;2023-04-21T11:12:10;51999.34;;;-145.37;36.39
13486;BME280;6815;59.336;17.998;2023-04-21T11:14:38;52007.31;;;-145.37;36.63
13486;BME280;6815;59.336;17.998;2023-04-21T11:17:10;52027.28;;;-145.37;36.66
13486;BME280;6815;59.336;17.998;2023-04-21T11:19:36;51963.41;;;-145.37;35.74
13486;BME280;6815;59.336;17.998;2023-04-21T11:22:03;51983.34;;;-145.37;35.71
13486;BME280;6815;59.336;17.998;2023-04-21T11:24:30;51989.34;;;-145.37;35.76
13486;BME280;6815;59.336;17.998;2023-04-21T11:26:57;52043.25;;;-145.37;35.83
13486;BME280;6815;59.336;17.998;2023-04-21T11:29:23;52001.31;;;-145.37;36.01
13486;BME280;6815;59.336;17.998;2023-04-21T11:31:50;52031.25;;;-145.37;36.50
13486;BME280;6815;59.336;17.998;2023-04-21T11:34:19;51989.34;;;-145.37;36.46
13486;BME280;6815;59.336;17.998;2023-04-21T11:36:46;51991.34;;;-145.37;36.36
13486;BME280;6815;59.336;17.998;2023-04-21T11:39:16;52027.28;;;-145.37;36.51
13486;BME280;6815;59.336;17.998;2023-04-21T11:41:47;51989.34;;;-145.37;36.48
13486;BME280;6815;59.336;17.998;2023-04-21T11:44:14;52017.28;;;-145.37;37.06
13486;BME280;6815;59.336;17.998;2023-04-21T11:46:54;52013.31;;;-145.37;36.00
13486;BME280;6815;59.336;17.998;2023-04-21T11:49:23;52017.28;;;-145.37;36.06
13486;BME280;6815;59.336;17.998;2023-04-21T11:51:53;51993.34;;;-145.37;36.19
13486;BME280;6815;59.336;17.998;2023-04-21T11:54:19;52037.25;;;-145.37;35.88
13486;BME280;6815;59.336;17.998;2023-04-21T11:56:49;51995.34;;;-145.37;35.84
13486;BME280;6815;59.336;17.998;2023-04-21T11:59:17;52001.31;;;-145.37;35.93
13486;BME280;6815;59.336;17.998;2023-04-21T12:01:47;52009.31;;;-145.37;36.00
13486;BME280;6815;59.336;17.998;2023-04-21T12:04:21;52025.28;;;-145.37;36.15
13486;BME280;6815;59.336;17.998;2023-04-21T12:06:56;52011.31;;;-145.37;36.02
13486;BME280;6815;59.336;17.998;2023-04-21T12:09:21;51991.34;;;-145.37;35.84
13486;BME280;6815;59.336;17.998;2023-04-21T12:11:48;52027.28;;;-145.37;35.71
13486;BME280;6815;59.336;17.998;2023-04-21T12:14:15;52019.28;;;-145.37;36.00
13486;BME280;6815;59.336;17.998;2023-04-21T12:16:41;52021.28;;;-145.37;35.86
13486;BME280;6815;59.336;17.998;2023-04-21T12:19:07;51995.34;;;-145.37;36.02
13486;BME280;6815;59.336;17.998;2023-04-21T12:21:36;51979.38;;;-145.37;35.86
13486;BME280;6815;59.336;17.998;2023-04-21T12:24:03;52015.28;;;-145.37;35.65
13486;BME280;6815;59.336;17.998;2023-04-21T12:26:29;52073.19;;;-145.37;35.47
13486;BME280;6815;59.336;17.998;2023-04-21T12:28:54;52015.28;;;-145.37;35.39
13486;BME280;6815;59.336;17.998;2023-04-21T12:31:20;51997.34;;;-145.37;35.48
13486;BME280;6815;59.336;17.998;2023-04-21T12:33:46;52043.25;;;-145.37;35.53
13486;BME280;6815;59.336;17.998;2023-04-21T12:36:12;52041.25;;;-145.37;35.36
13486;BME280;6815;59.336;17.998;2023-04-21T12:38:37;52005.31;;;-145.37;35.00
13486;BME280;6815;59.336;17.998;2023-04-21T12:41:03;52007.31;;;-145.37;34.74
13486;BME280;6815;59.336;17.998;2023-04-21T12:43:28;51997.34;;;-145.37;35.12
13486;BME280;6815;59.336;17.998;2023-04-21T12:45:54;51977.38;;;-145.37;34.87
13486;BME280;6815;59.336;17.998;2023-04-21T12:48:20;52013.31;;;-145.37;34.85
13486;BME280;6815;59.336;17.998;2023-04-21T12:50:46;52011.31;;;-145.37;34.62
13486;BME280;6815;59.336;17.998;2023-04-21T12:53:12;52033.25;;;-145.37;34.72
13486;BME280;6815;59.336;17.998;2023-04-21T12:55:37;52011.31;;;-145.37;34.59